Hammil Valley, California
Current Conditions -  °F | °C
As of 5:56 AM on Monday 20 Oct 2014 (Local Time) from KBIH Reporting Station
Clear Clear  
Wind Chill: 38°   Ceiling: Unl
Heat Index: 42°   Visibility: 10mi
Dew Point: 31°   Wind: 7mph
Humidity: 65%   Direction: 350°N
Pressure: 29.97"   Gusts: NA
Location:  37.4772°N, 118.401°W
Report Text: KBIH 201256Z AUTO 35006KT 10SM CLR 06/M01 A2997 RMK AO2 SLP117 T00561006
Loading
Personal Weather Stations






























Interactive Weather Map
Tropical Storm Tracking
New forecast layout! Learn more

10-Day Weather Forecast

Advertisements
Track Severe Weather on mobile